Time;durP1;ratioP1;P1;durP2;ratioP2;P2;SDS_P1;SDS_P2;PMS_P1;PMS_P2;Temp;Humidity;BMP_temperature;BMP_pressure;BME280_temperature;BME280_humidity;BME280_pressure;Samples;Min_cycle;Max_cycle;Signal;HPM_P1;HPM_P2
2020/02/04 00:01:52;;;;;;;28.8;5;;;;;;;11.82;75.94824;947.6552;;;;
2020/02/04 00:04:17;;;;;;;24;4.9;;;;;;;11.73;77.11133;947.4523;;;;
2020/02/04 00:06:41;;;;;;;20.6;4.6;;;;;;;11.59;79.29102;947.4064;;;;
2020/02/04 00:09:06;;;;;;;21.8;4.7;;;;;;;11.94;73.78809;947.2385;;;;
2020/02/04 00:11:32;;;;;;;26.5;5.3;;;;;;;11.77;76.05566;947.0137;;;;
2020/02/04 00:13:57;;;;;;;26;5.4;;;;;;;11.87;74.42188;946.9261;;;;
2020/02/04 00:18:47;;;;;;;26.4;5;;;;;;;11.92;73.58887;946.7894;;;;
2020/02/04 00:21:12;;;;;;;22;5.2;;;;;;;11.74;75.53125;946.7903;;;;
2020/02/04 00:23:38;;;;;;;28.6;4.7;;;;;;;12.17;70.70801;946.5482;;;;
2020/02/04 00:26:03;;;;;;;28.9;5.2;;;;;;;11.84;75.0293;946.5708;;;;
2020/02/04 00:30:53;;;;;;;21.2;5.2;;;;;;;12.06;71.9834;946.324;;;;
2020/02/04 00:33:18;;;;;;;26.3;5.5;;;;;;;11.88;74.71387;946.4249;;;;
2020/02/04 00:35:43;;;;;;;27;5.2;;;;;;;12.01;71.25977;946.3054;;;;
2020/02/04 00:38:08;;;;;;;32.9;5.5;;;;;;;12.03;70.74121;946.1121;;;;
2020/02/04 00:40:33;;;;;;;26;5.6;;;;;;;12.06;71.15137;946.2104;;;;
2020/02/04 00:42:58;;;;;;;28.5;5.5;;;;;;;12.13;71.40527;946.0775;;;;
2020/02/04 00:45:24;;;;;;;24.8;5.6;;;;;;;12.2;70.1123;945.9345;;;;
2020/02/04 00:47:49;;;;;;;30.1;5.8;;;;;;;12.26;70.56152;946.1847;;;;
2020/02/04 00:50:14;;;;;;;27.7;5.8;;;;;;;12.19;71.13867;946.041;;;;
2020/02/04 00:52:39;;;;;;;29.4;5.2;;;;;;;12.46;69.18262;945.5955;;;;
2020/02/04 00:55:04;;;;;;;28.2;5.8;;;;;;;12.42;70.10156;945.8222;;;;
2020/02/04 00:57:30;;;;;;;26.7;4.9;;;;;;;12.31;70.57031;945.6852;;;;
2020/02/04 00:59:55;;;;;;;25.7;5.4;;;;;;;12.43;69.39844;945.4422;;;;
2020/02/04 01:02:20;;;;;;;27.3;5.9;;;;;;;12.45;69.56348;945.1169;;;;
2020/02/04 01:04:45;;;;;;;29.4;5.7;;;;;;;12.5;69.35059;945.5051;;;;
2020/02/04 01:07:11;;;;;;;26.9;5.6;;;;;;;12.36;70.63477;945.6203;;;;
2020/02/04 01:09:36;;;;;;;28.1;5.3;;;;;;;12.09;73.00684;945.3968;;;;
2020/02/04 01:12:01;;;;;;;24.4;5.8;;;;;;;12.04;74.20996;945.3425;;;;
2020/02/04 01:14:27;;;;;;;30.1;5.8;;;;;;;11.95;74.9541;945.4553;;;;
2020/02/04 01:16:52;;;;;;;23.7;5.6;;;;;;;11.83;76.27441;945.2985;;;;
2020/02/04 01:19:17;;;;;;;31.5;6;;;;;;;11.71;78.15625;945.4686;;;;
2020/02/04 01:21:42;;;;;;;29.7;5.9;;;;;;;11.59;78.65234;945.2713;;;;
2020/02/04 01:24:11;;;;;;;25.7;5.2;;;;;;;11.41;80.6748;945.28;;;;
2020/02/04 01:26:50;;;;;;;23.3;5.2;;;;;;;11.28;82.19629;945.2525;;;;
2020/02/04 01:31:46;;;;;;;30;6.1;;;;;;;11.17;83.32617;945.1236;;;;
2020/02/04 01:36:16;;;;;;;23.9;6;;;;;;;11.04;84.47754;945.1897;;;;
2020/02/04 01:38:41;;;;;;;27.4;6;;;;;;;10.98;85.62891;945.2023;;;;
2020/02/04 01:41:12;;;;;;;29.1;6.6;;;;;;;10.8;87.53906;945.2065;;;;
2020/02/04 01:43:31;;;;;;;28.8;5.8;;;;;;;10.78;87.05176;945.0184;;;;
2020/02/04 01:45:56;;;;;;;26.6;5.9;;;;;;;10.76;88.23438;945.0143;;;;
2020/02/04 01:48:21;;;;;;;26.6;6.5;;;;;;;10.56;90.01074;945.0872;;;;
2020/02/04 01:50:46;;;;;;;26.4;5.8;;;;;;;10.61;88.92871;945.0641;;;;
2020/02/04 01:53:11;;;;;;;24.7;5.9;;;;;;;10.51;90.77246;944.8503;;;;
2020/02/04 01:55:37;;;;;;;32.6;6.4;;;;;;;10.46;90.21875;944.7773;;;;
2020/02/04 01:58:02;;;;;;;29.7;6.6;;;;;;;10.4;91.12988;944.6756;;;;
2020/02/04 02:00:27;;;;;;;28.7;6;;;;;;;10.46;90.27832;944.5695;;;;
2020/02/04 02:03:16;;;;;;;26.7;5.8;;;;;;;10.3;92.10742;944.52;;;;
2020/02/04 02:05:41;;;;;;;21.5;5.3;;;;;;;10.4;91.22168;944.3434;;;;
2020/02/04 02:08:06;;;;;;;26.7;5.9;;;;;;;10.26;91.95996;944.2217;;;;
2020/02/04 02:10:31;;;;;;;21.8;5.6;;;;;;;10.27;91.65332;944.1399;;;;
2020/02/04 02:12:56;;;;;;;29;6.5;;;;;;;10.27;92.00977;943.9722;;;;
2020/02/04 02:15:21;;;;;;;26.7;5.8;;;;;;;10.29;90.7832;943.9386;;;;
2020/02/04 02:17:46;;;;;;;26.3;5.5;;;;;;;10.4;89.79297;943.7597;;;;
2020/02/04 02:20:11;;;;;;;24;5.4;;;;;;;10.37;90.29395;943.7224;;;;
2020/02/04 02:22:37;;;;;;;26.9;5.2;;;;;;;10.39;89.33105;943.6727;;;;
2020/02/04 02:25:02;;;;;;;23.4;5.3;;;;;;;10.37;89.70703;943.7802;;;;
2020/02/04 02:27:27;;;;;;;26.4;5.5;;;;;;;10.39;88.7793;943.5546;;;;
2020/02/04 02:29:57;;;;;;;29.7;5.8;;;;;;;10.38;90.2959;943.3325;;;;
2020/02/04 02:32:30;;;;;;;25.1;5.8;;;;;;;10.52;87.81738;943.2303;;;;
2020/02/04 02:34:45;;;;;;;26.5;5.2;;;;;;;10.55;87.66113;943.253;;;;
2020/02/04 02:37:10;;;;;;;25.3;4.9;;;;;;;10.7;87.24316;943.0603;;;;
2020/02/04 02:39:32;;;;;;;23.3;5.5;;;;;;;10.79;85.47656;943.0522;;;;
2020/02/04 02:41:57;;;;;;;26.5;4.9;;;;;;;10.82;87.3584;942.8189;;;;
2020/02/04 02:44:22;;;;;;;24.6;5.5;;;;;;;10.67;87.52344;942.8096;;;;
2020/02/04 02:46:48;;;;;;;20;4.7;;;;;;;10.56;88.37695;942.5665;;;;
2020/02/04 02:49:13;;;;;;;22.6;5.2;;;;;;;10.52;88.79492;942.6244;;;;
2020/02/04 02:51:38;;;;;;;24.4;4.8;;;;;;;;;;;;;
2020/02/04 02:54:03;;;;;;;27.7;5.6;;;;;;;;;;;;;
2020/02/04 02:56:28;;;;;;;27.7;5.2;;;;;;;;;;;;;
2020/02/04 02:58:53;;;;;;;21.8;5.2;;;;;;;;;;;;;
2020/02/04 03:01:18;;;;;;;24.5;5;;;;;;;;;;;;;
2020/02/04 03:03:43;;;;;;;22.5;4.9;;;;;;;;;;;;;
2020/02/04 03:06:08;;;;;;;23.5;5;;;;;;;;;;;;;
2020/02/04 03:08:33;;;;;;;22.5;4.8;;;;;;;;;;;;;
2020/02/04 03:10:59;;;;;;;22.2;5.3;;;;;;;;;;;;;
2020/02/04 03:13:24;;;;;;;20.5;5.1;;;;;;;;;;;;;
2020/02/04 03:15:52;;;;;;;21.1;4.9;;;;;;;;;;;;;
2020/02/04 03:18:20;;;;;;;24.1;4.8;;;;;;;;;;;;;
2020/02/04 03:20:42;;;;;;;21.3;4.8;;;;;;;;;;;;;
2020/02/04 03:23:04;;;;;;;22.4;4.9;;;;;;;;;;;;;
2020/02/04 03:25:29;;;;;;;25.3;4.8;;;;;;;;;;;;;
2020/02/04 03:27:54;;;;;;;18.8;4.8;;;;;;;;;;;;;
2020/02/04 03:30:19;;;;;;;20.3;5;;;;;;;;;;;;;
2020/02/04 03:32:44;;;;;;;16.6;4.3;;;;;;;;;;;;;
2020/02/04 03:35:09;;;;;;;18.9;4.7;;;;;;;;;;;;;
2020/02/04 03:37:35;;;;;;;19.4;4.6;;;;;;;;;;;;;
2020/02/04 03:40:00;;;;;;;18.1;4.4;;;;;;;;;;;;;
2020/02/04 03:42:25;;;;;;;19.4;4.6;;;;;;;;;;;;;
2020/02/04 03:44:50;;;;;;;12.7;2.9;;;;;;;;;;;;;
2020/02/04 03:47:15;;;;;;;8.2;1.9;;;;;;;;;;;;;
2020/02/04 03:49:40;;;;;;;3.6;1;;;;;;;;;;;;;
2020/02/04 03:52:05;;;;;;;3.2;0.9;;;;;;;;;;;;;
2020/02/04 03:57:06;;;;;;;2.4;0.9;;;;;;;;;;;;;
2020/02/04 03:59:29;;;;;;;1.6;0.5;;;;;;;;;;;;;
2020/02/04 04:02:27;;;;;;;1.3;0.5;;;;;;;6.34;100;945.0472;;;;
2020/02/04 04:04:52;;;;;;;1.7;0.6;;;;;;;6.24;100;945.2141;;;;
2020/02/04 04:07:17;;;;;;;1.8;0.4;;;;;;;6.23;100;945.4033;;;;
2020/02/04 04:09:42;;;;;;;0.8;0.3;;;;;;;5.96;100;945.454;;;;
2020/02/04 04:12:07;;;;;;;0.6;0.3;;;;;;;5.92;100;945.7467;;;;
2020/02/04 04:14:32;;;;;;;0.3;0.2;;;;;;;5.87;100;945.7839;;;;
2020/02/04 04:16:58;;;;;;;0.7;0.2;;;;;;;5.68;100;945.8859;;;;
2020/02/04 04:19:23;;;;;;;1.1;0.2;;;;;;;5.63;100;946.257;;;;
2020/02/04 04:21:48;;;;;;;0.2;0.2;;;;;;;5.54;100;946.2492;;;;
2020/02/04 04:24:13;;;;;;;0.4;0.2;;;;;;;5.44;100;946.6334;;;;
2020/02/04 04:26:38;;;;;;;0.2;0.2;;;;;;;5.4;100;946.7274;;;;
2020/02/04 04:29:03;;;;;;;0.2;0.2;;;;;;;5.34;100;946.8094;;;;
2020/02/04 04:31:35;;;;;;;0.7;0.3;;;;;;;5.27;100;947.0086;;;;
2020/02/04 04:36:46;;;;;;;0.5;0.2;;;;;;;5.05;100;947.2416;;;;
2020/02/04 04:38:45;;;;;;;1.5;0.2;;;;;;;4.98;100;947.4719;;;;
2020/02/04 04:41:27;;;;;;;1.6;0.2;;;;;;;4.93;100;947.4586;;;;
2020/02/04 04:43:53;;;;;;;0.1;0.1;;;;;;;4.73;100;947.7839;;;;
2020/02/04 04:46:31;;;;;;;0.6;0.2;;;;;;;4.57;100;947.9197;;;;
2020/02/04 04:48:56;;;;;;;0.9;0.2;;;;;;;4.51;100;947.9852;;;;
2020/02/04 04:51:37;;;;;;;0.2;0.2;;;;;;;4.46;100;948.1795;;;;
2020/02/04 04:54:02;;;;;;;0.8;0.2;;;;;;;4.21;100;948.4127;;;;
2020/02/04 04:56:27;;;;;;;0.4;0.2;;;;;;;4.21;100;948.582;;;;
2020/02/04 04:58:52;;;;;;;0.4;0.2;;;;;;;4.29;100;948.6583;;;;
2020/02/04 05:01:25;;;;;;;0.2;0.2;;;;;;;4.24;100;948.7456;;;;
2020/02/04 05:03:50;;;;;;;0.2;0.2;;;;;;;4.15;100;948.8779;;;;
2020/02/04 05:06:16;;;;;;;0.1;0.1;;;;;;;4.12;100;948.9143;;;;
2020/02/04 05:08:47;;;;;;;0.1;0.1;;;;;;;4.13;100;949.0832;;;;
2020/02/04 05:14:06;;;;;;;0.1;0.1;;;;;;;3.97;100;949.5945;;;;
2020/02/04 05:17:00;;;;;;;0.3;0.3;;;;;;;3.96;100;949.625;;;;
2020/02/04 05:19:04;;;;;;;0.1;0.1;;;;;;;3.93;100;949.637;;;;
2020/02/04 05:21:30;;;;;;;0.2;0.2;;;;;;;3.88;100;949.6614;;;;
2020/02/04 05:23:55;;;;;;;0.3;0.2;;;;;;;3.89;100;949.8198;;;;
2020/02/04 05:26:20;;;;;;;0.1;0.1;;;;;;;3.81;100;950.2628;;;;
2020/02/04 05:28:45;;;;;;;0.2;0.2;;;;;;;3.86;100;950.4055;;;;
2020/02/04 05:31:11;;;;;;;0.6;0.3;;;;;;;3.88;100;950.7531;;;;
2020/02/04 05:33:36;;;;;;;0.3;0.2;;;;;;;3.94;100;950.9355;;;;
2020/02/04 05:36:01;;;;;;;0.5;0.2;;;;;;;3.91;100;951.1738;;;;
2020/02/04 05:38:26;;;;;;;0.2;0.2;;;;;;;3.95;100;951.4727;;;;
2020/02/04 05:40:52;;;;;;;0.4;0.1;;;;;;;3.93;100;951.6774;;;;
2020/02/04 05:43:17;;;;;;;0.2;0.2;;;;;;;3.99;100;951.9849;;;;
2020/02/04 05:45:42;;;;;;;0.2;0.2;;;;;;;3.98;100;952.1574;;;;
2020/02/04 05:48:08;;;;;;;0.3;0.2;;;;;;;3.87;100;952.234;;;;
2020/02/04 05:50:33;;;;;;;0.5;0.2;;;;;;;3.94;100;952.5317;;;;
2020/02/04 05:52:58;;;;;;;0.3;0.2;;;;;;;3.99;100;952.7029;;;;
2020/02/04 05:55:23;;;;;;;0.3;0.3;;;;;;;3.91;100;952.8242;;;;
2020/02/04 05:57:48;;;;;;;0.3;0.3;;;;;;;3.93;100;952.949;;;;
2020/02/04 06:00:14;;;;;;;0.3;0.3;;;;;;;3.92;100;953.0203;;;;
2020/02/04 06:02:39;;;;;;;0.2;0.2;;;;;;;3.96;100;953.2184;;;;
2020/02/04 06:05:04;;;;;;;0.3;0.3;;;;;;;3.86;100;953.2531;;;;
2020/02/04 06:07:29;;;;;;;0.6;0.4;;;;;;;3.92;100;953.4631;;;;
2020/02/04 06:09:55;;;;;;;1.8;0.4;;;;;;;3.91;100;953.5432;;;;
2020/02/04 06:14:45;;;;;;;0.3;0.3;;;;;;;3.9;100;953.7733;;;;
2020/02/04 06:17:10;;;;;;;0.8;0.4;;;;;;;3.86;100;953.8583;;;;
2020/02/04 06:19:35;;;;;;;1.2;0.5;;;;;;;3.79;100;954.003;;;;
2020/02/04 06:24:25;;;;;;;1.2;0.4;;;;;;;3.78;100;954.1342;;;;
2020/02/04 06:26:50;;;;;;;1.6;0.6;;;;;;;3.83;100;954.2855;;;;
2020/02/04 06:29:23;;;;;;;0.4;0.4;;;;;;;3.83;100;954.2689;;;;
2020/02/04 06:31:48;;;;;;;0.8;0.4;;;;;;;3.79;100;954.3028;;;;
2020/02/04 06:34:13;;;;;;;0.5;0.3;;;;;;;3.82;100;954.3748;;;;
2020/02/04 06:36:39;;;;;;;0.8;0.5;;;;;;;3.81;100;954.3865;;;;
2020/02/04 06:39:04;;;;;;;0.6;0.5;;;;;;;3.89;100;954.4171;;;;
2020/02/04 06:41:29;;;;;;;1;0.4;;;;;;;3.84;100;954.5408;;;;
2020/02/04 06:43:54;;;;;;;1;0.4;;;;;;;3.85;100;954.5055;;;;
2020/02/04 06:46:19;;;;;;;0.6;0.5;;;;;;;3.82;100;954.4698;;;;
2020/02/04 06:48:44;;;;;;;0.9;0.5;;;;;;;3.88;100;954.6365;;;;
2020/02/04 06:51:09;;;;;;;0.9;0.5;;;;;;;3.93;100;954.7399;;;;
2020/02/04 06:53:34;;;;;;;0.6;0.6;;;;;;;3.91;100;954.6697;;;;
2020/02/04 06:56:00;;;;;;;1;0.5;;;;;;;3.79;100;954.6548;;;;
2020/02/04 06:58:25;;;;;;;1.8;0.7;;;;;;;3.82;100;954.6439;;;;
2020/02/04 07:00:50;;;;;;;2.3;0.8;;;;;;;3.96;100;954.6322;;;;
2020/02/04 07:03:16;;;;;;;3;0.9;;;;;;;3.96;100;954.7601;;;;
2020/02/04 07:05:41;;;;;;;2.1;0.7;;;;;;;3.87;100;954.6902;;;;
2020/02/04 07:08:06;;;;;;;1.6;0.7;;;;;;;3.88;100;954.7452;;;;
2020/02/04 07:10:31;;;;;;;2.3;0.7;;;;;;;3.97;100;954.6373;;;;
2020/02/04 07:12:56;;;;;;;6.1;0.9;;;;;;;3.91;100;954.5422;;;;
2020/02/04 07:15:21;;;;;;;3;0.9;;;;;;;3.86;100;954.7657;;;;
2020/02/04 07:17:47;;;;;;;4;1.1;;;;;;;3.72;100;954.6821;;;;
2020/02/04 07:20:12;;;;;;;3.1;0.9;;;;;;;3.75;100;954.8211;;;;
2020/02/04 07:22:37;;;;;;;3;1;;;;;;;3.83;100;954.7685;;;;
2020/02/04 07:25:03;;;;;;;3.2;1.1;;;;;;;3.82;100;954.7971;;;;
2020/02/04 07:27:28;;;;;;;9.6;2.7;;;;;;;3.85;100;954.774;;;;
2020/02/04 07:29:53;;;;;;;6.6;1.5;;;;;;;3.84;100;954.8986;;;;
2020/02/04 07:32:18;;;;;;;6.1;1.5;;;;;;;3.82;100;954.8486;;;;
2020/02/04 07:34:43;;;;;;;9;1.7;;;;;;;3.8;100;954.8855;;;;
2020/02/04 07:37:09;;;;;;;7.8;1.6;;;;;;;3.89;100;954.8356;;;;
2020/02/04 07:39:34;;;;;;;12.6;2.1;;;;;;;3.79;100;954.8628;;;;
2020/02/04 07:41:59;;;;;;;6.7;1.8;;;;;;;3.89;100;954.8356;;;;
2020/02/04 07:44:24;;;;;;;5.2;1.4;;;;;;;3.89;99.08301;954.878;;;;
2020/02/04 07:46:50;;;;;;;3.5;1.2;;;;;;;3.93;99.81641;954.8898;;;;
2020/02/04 07:49:15;;;;;;;4.3;1.2;;;;;;;3.98;98.87695;954.9529;;;;
2020/02/04 07:51:40;;;;;;;12.4;2.2;;;;;;;4.02;99.00977;954.9639;;;;
2020/02/04 07:54:05;;;;;;;10;2.1;;;;;;;3.99;99.71777;954.9291;;;;
2020/02/04 07:58:57;;;;;;;6.5;1.8;;;;;;;3.88;100;954.9289;;;;
2020/02/04 08:03:52;;;;;;;7.6;1.8;;;;;;;3.69;100;954.9623;;;;
2020/02/04 08:08:48;;;;;;;5.3;1.5;;;;;;;3.37;100;955.0266;;;;
2020/02/04 08:11:11;;;;;;;2.9;1.2;;;;;;;3.23;100;955.0627;;;;
2020/02/04 08:16:04;;;;;;;2.3;0.9;;;;;;;3.24;100;954.8572;;;;
2020/02/04 08:18:33;;;;;;;2.1;0.9;;;;;;;3.29;100;954.8155;;;;
2020/02/04 08:23:19;;;;;;;3.1;1.1;;;;;;;3.34;100;954.705;;;;
2020/02/04 08:25:59;;;;;;;2.2;1.1;;;;;;;3.31;100;954.6546;;;;
2020/02/04 08:30:38;;;;;;;2.6;1.6;;;;;;;3.33;100;954.6612;;;;
2020/02/04 08:35:23;;;;;;;4.9;1.7;;;;;;;3.34;100;954.5735;;;;
2020/02/04 08:37:48;;;;;;;3.2;1.8;;;;;;;3.36;100;954.6461;;;;
2020/02/04 08:41:02;;;;;;;3.3;1.9;;;;;;;3.41;100;954.6639;;;;
2020/02/04 08:42:37;;;;;;;4.4;2;;;;;;;3.5;100;954.6451;;;;
2020/02/04 08:54:39;;;;;;;4.6;2.6;;;;;;;3.55;100;954.7081;;;;
2020/02/04 09:00:06;;;;;;;3.7;1.7;;;;;;;3.64;99.54297;954.6492;;;;
2020/02/04 09:04:28;;;;;;;3.5;1.7;;;;;;;3.69;97.67578;954.7787;;;;
2020/02/04 09:06:45;;;;;;;4.4;2.1;;;;;;;3.7;97.24902;954.7854;;;;
2020/02/04 09:09:05;;;;;;;4.5;1.9;;;;;;;3.74;96.81543;954.7404;;;;
2020/02/04 09:11:44;;;;;;;4.7;1.8;;;;;;;3.89;93.33789;955.0513;;;;
2020/02/04 09:14:09;;;;;;;5;1.9;;;;;;;3.74;91.83203;954.9329;;;;
2020/02/04 09:16:35;;;;;;;4.3;1.8;;;;;;;3.77;92.60938;954.9042;;;;
2020/02/04 09:19:00;;;;;;;4.6;1.9;;;;;;;3.83;91.56543;954.9172;;;;
2020/02/04 09:21:25;;;;;;;6.5;2.3;;;;;;;3.77;91.45215;954.8735;;;;
2020/02/04 09:24:31;;;;;;;5.2;1.9;;;;;;;3.89;92.72559;954.8225;;;;
2020/02/04 09:26:56;;;;;;;4.4;2;;;;;;;3.85;92.60254;954.8279;;;;
2020/02/04 09:29:23;;;;;;;5;2;;;;;;;3.84;91.54688;954.8414;;;;
2020/02/04 09:31:56;;;;;;;4.1;1.7;;;;;;;3.96;91.91406;954.8522;;;;
2020/02/04 09:34:19;;;;;;;6.4;1.9;;;;;;;4.14;91.60156;954.9506;;;;
2020/02/04 09:36:44;;;;;;;5.1;1.9;;;;;;;4.14;89.82129;954.9313;;;;
2020/02/04 09:39:09;;;;;;;4.2;1.9;;;;;;;4.22;90.87012;954.9294;;;;
2020/02/04 09:41:34;;;;;;;5;2.1;;;;;;;4.21;89.50684;954.9055;;;;
2020/02/04 09:44:16;;;;;;;4.7;1.8;;;;;;;4.29;88.50293;954.885;;;;
2020/02/04 09:47:29;;;;;;;5.2;1.9;;;;;;;4.37;90.35645;954.9314;;;;
2020/02/04 09:48:51;;;;;;;5.4;1.7;;;;;;;4.19;86.44043;954.8719;;;;
2020/02/04 09:51:15;;;;;;;6.5;1.9;;;;;;;4.34;85.94727;954.9126;;;;
2020/02/04 09:53:40;;;;;;;4.4;1.8;;;;;;;4.32;87.82813;954.9296;;;;
2020/02/04 09:56:05;;;;;;;4.6;2.2;;;;;;;4.34;86.21973;954.99;;;;
2020/02/04 09:58:31;;;;;;;5.5;1.9;;;;;;;4.32;85.82031;955.0748;;;;
2020/02/04 10:00:56;;;;;;;5.5;2;;;;;;;4.4;87.17383;955.0966;;;;
2020/02/04 10:03:21;;;;;;;4.5;1.6;;;;;;;4.17;85.06641;955.0154;;;;
2020/02/04 10:05:47;;;;;;;5.1;2;;;;;;;4.19;87.82324;955.1008;;;;
2020/02/04 10:08:12;;;;;;;5.7;2;;;;;;;4.32;85.85449;955.1231;;;;
2020/02/04 10:10:37;;;;;;;5.2;1.6;;;;;;;4.4;85.93945;955.1301;;;;
2020/02/04 10:13:02;;;;;;;3.8;1.4;;;;;;;4.46;84.16797;955.1934;;;;
2020/02/04 10:15:28;;;;;;;6;1.9;;;;;;;4.4;85.1543;955.2026;;;;
2020/02/04 10:17:53;;;;;;;6.9;2.2;;;;;;;4.35;84.78223;955.17;;;;
2020/02/04 10:20:18;;;;;;;7.7;1.9;;;;;;;4.34;84.51953;954.9892;;;;
2020/02/04 10:22:43;;;;;;;5.1;1.6;;;;;;;4.4;84.05371;955.0073;;;;
2020/02/04 10:25:08;;;;;;;6.7;2.2;;;;;;;4.47;83.14941;955.1236;;;;
2020/02/04 10:27:34;;;;;;;6.2;1.9;;;;;;;4.42;84.01172;955.0055;;;;
2020/02/04 10:29:59;;;;;;;6.9;1.9;;;;;;;4.4;81.50098;955.0336;;;;
2020/02/04 10:32:24;;;;;;;7.9;2.2;;;;;;;4.45;82.29492;955.0502;;;;
2020/02/04 10:34:49;;;;;;;6.1;2.1;;;;;;;4.5;81.71289;955.0576;;;;
2020/02/04 10:37:14;;;;;;;6.7;1.9;;;;;;;4.48;81.50586;955.0792;;;;
2020/02/04 10:39:39;;;;;;;6.3;1.9;;;;;;;4.54;81.58594;955.0516;;;;
2020/02/04 10:42:04;;;;;;;7.7;2;;;;;;;4.73;81.98438;955.1188;;;;
2020/02/04 10:44:43;;;;;;;5.5;1.8;;;;;;;4.8;81.75977;955.2517;;;;
2020/02/04 10:47:56;;;;;;;5.7;1.8;;;;;;;4.83;77.24512;955.2238;;;;
2020/02/04 10:55:49;;;;;;;5.7;1.7;;;;;;;4.8;80.47656;955.226;;;;
2020/02/04 10:58:14;;;;;;;6.2;2;;;;;;;4.92;77.85254;955.226;;;;
2020/02/04 11:00:46;;;;;;;4.7;1.7;;;;;;;4.84;76.66797;955.2764;;;;
2020/02/04 11:03:04;;;;;;;6.2;1.8;;;;;;;4.68;76.57031;955.1145;;;;
2020/02/04 11:05:18;;;;;;;6;1.7;;;;;;;4.68;77.53613;955.1855;;;;
2020/02/04 11:07:43;;;;;;;5.1;1.6;;;;;;;4.74;75.43555;955.1448;;;;
2020/02/04 11:10:08;;;;;;;4.7;1.7;;;;;;;4.74;77.94434;955.1472;;;;
2020/02/04 11:12:33;;;;;;;7;1.7;;;;;;;4.9;78.37305;955.1325;;;;
2020/02/04 11:14:58;;;;;;;4.8;1.6;;;;;;;4.79;79.72559;955.0708;;;;
2020/02/04 11:17:23;;;;;;;5.5;1.4;;;;;;;4.64;79.56152;955.0633;;;;
2020/02/04 11:19:48;;;;;;;5.1;1.6;;;;;;;4.83;80.66406;955.0566;;;;
2020/02/04 11:22:13;;;;;;;4.5;1.6;;;;;;;4.74;79.28418;955.0956;;;;
2020/02/04 11:24:39;;;;;;;5.3;1.6;;;;;;;4.73;78.4082;955.1052;;;;
2020/02/04 11:27:04;;;;;;;5;1.7;;;;;;;4.48;78.75977;955.1382;;;;
2020/02/04 11:29:29;;;;;;;5.3;1.6;;;;;;;4.31;78.89941;955.1068;;;;
2020/02/04 11:31:54;;;;;;;5.6;1.8;;;;;;;4.19;78.16406;955.1994;;;;
2020/02/04 11:34:19;;;;;;;4.3;1.6;;;;;;;4.16;79.48242;955.2477;;;;
2020/02/04 11:36:44;;;;;;;5.3;1.7;;;;;;;4.07;79.00098;955.142;;;;
2020/02/04 11:39:09;;;;;;;3.6;1.6;;;;;;;4.23;78.13477;955.2933;;;;
2020/02/04 11:41:34;;;;;;;4.1;1.6;;;;;;;4.26;79.67285;955.2242;;;;
2020/02/04 11:43:59;;;;;;;4.9;1.9;;;;;;;4.25;78.93359;955.3053;;;;
2020/02/04 11:46:27;;;;;;;5;1.6;;;;;;;4.16;78.28027;955.2767;;;;
2020/02/04 11:48:50;;;;;;;5.8;1.8;;;;;;;4.25;80.31738;955.382;;;;
2020/02/04 11:51:15;;;;;;;4.7;1.6;;;;;;;4.29;77.04395;955.3114;;;;
2020/02/04 11:53:40;;;;;;;5.8;1.7;;;;;;;4.43;77.46777;955.3428;;;;
2020/02/04 11:56:05;;;;;;;6;1.8;;;;;;;4.3;75.8125;955.4224;;;;
2020/02/04 11:58:30;;;;;;;4.3;1.9;;;;;;;4.55;77.8877;955.3209;;;;
2020/02/04 12:00:56;;;;;;;5.2;1.7;;;;;;;4.65;76.23828;955.3711;;;;
2020/02/04 12:03:21;;;;;;;4.6;1.4;;;;;;;4.73;75.83105;955.3541;;;;
2020/02/04 12:05:46;;;;;;;5.9;1.6;;;;;;;4.56;74.70117;955.3292;;;;
2020/02/04 12:08:11;;;;;;;5.1;1.6;;;;;;;4.56;76.16406;955.2564;;;;
2020/02/04 12:10:36;;;;;;;5;1.5;;;;;;;4.64;76.21289;955.3416;;;;
2020/02/04 12:13:01;;;;;;;4.6;1.5;;;;;;;4.46;76.50977;955.1934;;;;
2020/02/04 12:15:28;;;;;;;5.2;1.6;;;;;;;4.52;75.70215;955.2758;;;;
2020/02/04 12:17:53;;;;;;;6.8;1.8;;;;;;;4.65;76.57715;955.2781;;;;
2020/02/04 12:20:18;;;;;;;4.1;1.6;;;;;;;4.8;77.18359;955.2978;;;;
2020/02/04 12:22:44;;;;;;;4.7;1.7;;;;;;;4.81;74.89355;955.3369;;;;
2020/02/04 12:25:09;;;;;;;4.6;1.5;;;;;;;5.02;75.63379;955.3067;;;;
2020/02/04 12:27:34;;;;;;;5.8;1.8;;;;;;;4.96;75.34961;955.2763;;;;
2020/02/04 12:29:59;;;;;;;5.3;1.9;;;;;;;5.08;75.76855;955.3409;;;;
2020/02/04 12:32:24;;;;;;;4.4;1.6;;;;;;;5.2;76.40234;955.1954;;;;
2020/02/04 12:34:49;;;;;;;4.8;1.6;;;;;;;4.97;74.94434;955.2068;;;;
2020/02/04 12:37:14;;;;;;;6.1;1.7;;;;;;;4.92;74.93359;955.2784;;;;
2020/02/04 12:39:39;;;;;;;4.9;1.7;;;;;;;4.84;78.03223;955.2371;;;;
2020/02/04 12:42:04;;;;;;;3.8;1.5;;;;;;;4.9;76.95313;955.2996;;;;
2020/02/04 12:44:29;;;;;;;4.4;1.4;;;;;;;4.93;77.21973;955.2609;;;;
2020/02/04 12:46:54;;;;;;;5.9;1.8;;;;;;;4.83;77.55176;955.2957;;;;
2020/02/04 12:49:19;;;;;;;4.5;1.5;;;;;;;4.92;76.93359;955.264;;;;
2020/02/04 12:51:44;;;;;;;5;1.4;;;;;;;5.03;74.47656;955.1877;;;;
2020/02/04 12:54:10;;;;;;;4.6;1.6;;;;;;;5.02;74.89355;955.1727;;;;
2020/02/04 12:56:35;;;;;;;4.4;1.4;;;;;;;5.08;75.58594;955.1286;;;;
2020/02/04 12:59:00;;;;;;;4.7;1.7;;;;;;;5.15;75.57617;955.1594;;;;
2020/02/04 13:01:25;;;;;;;5.1;1.7;;;;;;;4.83;76.96191;955.2416;;;;
2020/02/04 13:03:50;;;;;;;6.1;1.8;;;;;;;4.72;78.99707;955.3337;;;;
2020/02/04 13:06:15;;;;;;;4.7;1.7;;;;;;;4.35;83.70703;955.5452;;;;
2020/02/04 13:08:40;;;;;;;4.6;1.5;;;;;;;4.2;85.50098;955.4124;;;;
2020/02/04 13:11:05;;;;;;;4.4;1.5;;;;;;;4.21;87.2168;955.4216;;;;
2020/02/04 13:13:30;;;;;;;4.2;1.8;;;;;;;4.26;83.17676;955.4146;;;;
2020/02/04 13:16:10;;;;;;;5.6;1.8;;;;;;;4.2;84.21875;955.4316;;;;
2020/02/04 13:20:57;;;;;;;5.1;1.8;;;;;;;4.24;83.44531;955.4404;;;;
2020/02/04 13:30:42;;;;;;;4.5;1.7;;;;;;;4.22;83.54199;955.6481;;;;
2020/02/04 13:33:10;;;;;;;6.4;1.7;;;;;;;4.16;82.625;955.6755;;;;
2020/02/04 13:35:35;;;;;;;4.6;1.5;;;;;;;3.95;82.60742;955.6814;;;;
2020/02/04 13:37:55;;;;;;;3.7;1.3;;;;;;;3.9;83.83008;955.7275;;;;
2020/02/04 13:41:29;;;;;;;4.1;1.4;;;;;;;3.82;85.06055;955.8259;;;;
2020/02/04 13:45:26;;;;;;;3.8;1.4;;;;;;;3.75;85.52539;955.9202;;;;
2020/02/04 13:47:40;;;;;;;4.4;1.5;;;;;;;3.52;88.12793;955.8725;;;;
2020/02/04 13:52:24;;;;;;;5.2;1.5;;;;;;;3.69;90.08691;955.8211;;;;
2020/02/04 13:54:46;;;;;;;6;2.2;;;;;;;3.54;88.34668;955.8822;;;;
2020/02/04 13:57:21;;;;;;;4.5;2.2;;;;;;;3.59;88.93555;955.8956;;;;
2020/02/04 13:59:49;;;;;;;6;3.1;;;;;;;3.6;88.49414;955.952;;;;
2020/02/04 14:02:39;;;;;;;6;1.8;;;;;;;3.65;89.45703;955.9369;;;;
2020/02/04 14:07:29;;;;;;;6.2;2;;;;;;;3.89;88.99805;955.9717;;;;
2020/02/04 14:09:30;;;;;;;4.9;1.8;;;;;;;3.74;89.71191;955.9702;;;;
2020/02/04 14:11:52;;;;;;;4.9;2.3;;;;;;;3.88;88.66699;955.9969;;;;
2020/02/04 14:14:07;;;;;;;4.6;2.1;;;;;;;3.72;89.8457;955.9706;;;;
2020/02/04 14:16:37;;;;;;;5.7;2.2;;;;;;;3.94;89.57324;956.0072;;;;
2020/02/04 14:19:00;;;;;;;2.9;1.8;;;;;;;3.97;87.26758;955.9984;;;;
2020/02/04 14:26:19;;;;;;;4.5;1.9;;;;;;;4.29;85.61133;956.0511;;;;
2020/02/04 14:31:03;;;;;;;5;2;;;;;;;4.44;82.30371;956.1573;;;;
2020/02/04 14:34:14;;;;;;;4.7;2.1;;;;;;;4.46;81.42383;956.1713;;;;
2020/02/04 14:35:53;;;;;;;4.7;1.6;;;;;;;4.52;82.5332;956.2983;;;;
2020/02/04 14:38:19;;;;;;;6.6;2.2;;;;;;;4.66;78.84961;956.2927;;;;
2020/02/04 14:46:12;;;;;;;5;2;;;;;;;4.39;78.15332;956.3723;;;;
2020/02/04 14:48:01;;;;;;;6.8;2.5;;;;;;;4.39;77.46094;956.4183;;;;
2020/02/04 14:50:28;;;;;;;5.5;2;;;;;;;4.43;78.06836;956.4883;;;;
2020/02/04 14:52:52;;;;;;;5.6;1.9;;;;;;;4.41;77.29395;956.5151;;;;
2020/02/04 14:55:27;;;;;;;5.7;1.9;;;;;;;4.27;77.59668;956.5219;;;;
2020/02/04 14:57:40;;;;;;;4.4;1.8;;;;;;;4.28;77.65723;956.575;;;;
2020/02/04 15:02:38;;;;;;;6.5;2.1;;;;;;;4.16;76.98926;956.6052;;;;
2020/02/04 15:07:51;;;;;;;6.1;2;;;;;;;4.24;77.86426;956.686;;;;
2020/02/04 15:09:54;;;;;;;6.2;2.6;;;;;;;4.33;77.84863;956.6976;;;;
2020/02/04 15:12:16;;;;;;;5.1;1.9;;;;;;;4.19;77.44922;956.5386;;;;
2020/02/04 15:14:37;;;;;;;6.5;2.3;;;;;;;4.19;78.37598;956.5759;;;;
2020/02/04 15:16:58;;;;;;;5.1;2.3;;;;;;;4.36;77.64844;956.7463;;;;
2020/02/04 15:19:19;;;;;;;7.2;2.1;;;;;;;4.11;77.88672;956.5845;;;;
2020/02/04 15:21:44;;;;;;;4.2;2.1;;;;;;;4.13;78.29785;956.6022;;;;
2020/02/04 15:24:09;;;;;;;7;2;;;;;;;4.2;75.22656;956.7363;;;;
2020/02/04 15:26:34;;;;;;;5.6;2;;;;;;;4.2;77.33594;956.7313;;;;
2020/02/04 15:29:22;;;;;;;5.5;1.8;;;;;;;4.22;77.3623;956.6997;;;;
2020/02/04 15:31:40;;;;;;;4.6;1.9;;;;;;;4.2;77.52832;956.6548;;;;
2020/02/04 15:33:55;;;;;;;5.1;2.1;;;;;;;4.14;77.62109;956.7413;;;;
2020/02/04 15:36:16;;;;;;;6;2;;;;;;;4.18;78.05859;956.7612;;;;
2020/02/04 15:38:42;;;;;;;5.1;2.2;;;;;;;4.3;76.5957;956.7531;;;;
2020/02/04 15:41:12;;;;;;;4.9;1.9;;;;;;;4.23;75.61914;956.8077;;;;
2020/02/04 15:43:37;;;;;;;6;2;;;;;;;4.22;75.37695;956.8718;;;;
2020/02/04 15:46:02;;;;;;;5.5;2;;;;;;;4.1;75.31152;956.8603;;;;
2020/02/04 15:48:27;;;;;;;5.4;1.9;;;;;;;4.15;77.75879;956.8722;;;;
2020/02/04 15:50:53;;;;;;;6;1.7;;;;;;;4.14;76.21387;956.908;;;;
2020/02/04 15:53:18;;;;;;;5.8;1.5;;;;;;;4.04;76.24121;956.995;;;;
2020/02/04 16:00:50;;;;;;;4.6;1.9;;;;;;;4.2;75.19238;957.1121;;;;
2020/02/04 16:03:20;;;;;;;5.4;2.3;;;;;;;4.18;75.7793;957.2119;;;;
2020/02/04 16:07:58;;;;;;;4.7;2.1;;;;;;;4.12;76.22363;957.2428;;;;
2020/02/04 16:10:31;;;;;;;6;2;;;;;;;4.17;76.91113;957.2712;;;;
2020/02/04 16:12:44;;;;;;;6.7;2.2;;;;;;;4.1;75.81055;957.329;;;;
2020/02/04 16:15:34;;;;;;;5.3;1.9;;;;;;;4.09;76.01465;957.3995;;;;
2020/02/04 16:20:08;;;;;;;5.2;2;;;;;;;4.19;81.5625;957.8983;;;;
2020/02/04 16:22:30;;;;;;;3.3;1.6;;;;;;;3.32;89.91895;957.8624;;;;
2020/02/04 16:24:56;;;;;;;3.8;1.4;;;;;;;2.94;94.38281;957.9257;;;;
2020/02/04 16:27:27;;;;;;;4.9;2.1;;;;;;;2.53;98.76367;958.053;;;;
2020/02/04 16:32:18;;;;;;;2.8;1.3;;;;;;;2.16;100;957.9386;;;;
2020/02/04 16:34:40;;;;;;;4.2;1.4;;;;;;;2.27;100;958.0584;;;;
2020/02/04 16:37:00;;;;;;;3.4;1.5;;;;;;;2.19;100;958.1206;;;;
2020/02/04 16:39:35;;;;;;;3.3;1.5;;;;;;;2.32;100;958.1156;;;;
2020/02/04 16:42:01;;;;;;;3.4;1.6;;;;;;;2.4;100;958.0785;;;;
2020/02/04 16:45:54;;;;;;;3.8;2.4;;;;;;;2.35;100;958.1458;;;;
2020/02/04 16:49:12;;;;;;;4;2.6;;;;;;;2.26;100;958.2622;;;;
2020/02/04 16:51:39;;;;;;;4.3;2.5;;;;;;;2.24;100;958.3351;;;;